sensor_id;sensor_type;location;lat;lon;timestamp;P1;durP1;ratioP1;P2;durP2;ratioP2
11927;SDS011;6023;47.070;15.126;2023-02-28T00:01:37;5.00;;;3.73;;
11927;SDS011;6023;47.070;15.126;2023-02-28T00:04:07;4.30;;;3.50;;
11927;SDS011;6023;47.070;15.126;2023-02-28T00:06:36;4.30;;;3.37;;
11927;SDS011;6023;47.070;15.126;2023-02-28T00:09:05;4.93;;;3.40;;
11927;SDS011;6023;47.070;15.126;2023-02-28T00:11:33;3.60;;;3.20;;
11927;SDS011;6023;47.070;15.126;2023-02-28T00:14:04;4.57;;;3.60;;
11927;SDS011;6023;47.070;15.126;2023-02-28T00:16:33;4.00;;;3.60;;
11927;SDS011;6023;47.070;15.126;2023-02-28T00:19:01;4.00;;;3.57;;
11927;SDS011;6023;47.070;15.126;2023-02-28T00:21:31;4.40;;;3.63;;
11927;SDS011;6023;47.070;15.126;2023-02-28T00:23:59;3.70;;;3.30;;
11927;SDS011;6023;47.070;15.126;2023-02-28T00:26:28;3.73;;;3.13;;
11927;SDS011;6023;47.070;15.126;2023-02-28T00:28:56;3.60;;;3.07;;
11927;SDS011;6023;47.070;15.126;2023-02-28T00:31:25;4.00;;;3.40;;
11927;SDS011;6023;47.070;15.126;2023-02-28T00:33:54;3.77;;;3.23;;
11927;SDS011;6023;47.070;15.126;2023-02-28T00:36:22;4.13;;;3.60;;
11927;SDS011;6023;47.070;15.126;2023-02-28T00:38:52;3.93;;;3.43;;
11927;SDS011;6023;47.070;15.126;2023-02-28T00:41:21;4.33;;;3.50;;
11927;SDS011;6023;47.070;15.126;2023-02-28T00:43:49;5.70;;;3.87;;
11927;SDS011;6023;47.070;15.126;2023-02-28T00:46:18;4.20;;;3.63;;
11927;SDS011;6023;47.070;15.126;2023-02-28T00:48:46;4.17;;;3.60;;
11927;SDS011;6023;47.070;15.126;2023-02-28T00:51:15;4.07;;;3.67;;
11927;SDS011;6023;47.070;15.126;2023-02-28T00:53:43;4.20;;;3.50;;
11927;SDS011;6023;47.070;15.126;2023-02-28T00:56:13;4.17;;;3.47;;
11927;SDS011;6023;47.070;15.126;2023-02-28T00:58:42;3.97;;;3.40;;
11927;SDS011;6023;47.070;15.126;2023-02-28T01:01:10;3.93;;;3.37;;
11927;SDS011;6023;47.070;15.126;2023-02-28T01:03:39;4.90;;;3.60;;
11927;SDS011;6023;47.070;15.126;2023-02-28T01:06:07;3.90;;;3.50;;
11927;SDS011;6023;47.070;15.126;2023-02-28T01:08:35;4.63;;;3.50;;
11927;SDS011;6023;47.070;15.126;2023-02-28T01:11:08;4.70;;;3.60;;
11927;SDS011;6023;47.070;15.126;2023-02-28T01:13:38;5.33;;;3.80;;
11927;SDS011;6023;47.070;15.126;2023-02-28T01:16:07;3.83;;;3.50;;
11927;SDS011;6023;47.070;15.126;2023-02-28T01:18:35;4.13;;;3.60;;
11927;SDS011;6023;47.070;15.126;2023-02-28T01:21:04;4.83;;;3.50;;
11927;SDS011;6023;47.070;15.126;2023-02-28T01:23:33;4.00;;;3.60;;
11927;SDS011;6023;47.070;15.126;2023-02-28T01:26:03;4.60;;;3.67;;
11927;SDS011;6023;47.070;15.126;2023-02-28T01:28:32;4.47;;;3.70;;
11927;SDS011;6023;47.070;15.126;2023-02-28T01:31:03;4.70;;;3.57;;
11927;SDS011;6023;47.070;15.126;2023-02-28T01:33:32;3.73;;;3.13;;
11927;SDS011;6023;47.070;15.126;2023-02-28T01:36:00;4.30;;;3.57;;
11927;SDS011;6023;47.070;15.126;2023-02-28T01:38:29;4.00;;;3.37;;
11927;SDS011;6023;47.070;15.126;2023-02-28T01:40:58;4.20;;;3.60;;
11927;SDS011;6023;47.070;15.126;2023-02-28T01:43:27;3.67;;;3.20;;
11927;SDS011;6023;47.070;15.126;2023-02-28T01:45:58;3.77;;;3.37;;
11927;SDS011;6023;47.070;15.126;2023-02-28T01:48:29;4.53;;;3.47;;
11927;SDS011;6023;47.070;15.126;2023-02-28T01:51:00;4.23;;;3.70;;
11927;SDS011;6023;47.070;15.126;2023-02-28T01:53:32;4.33;;;3.43;;
11927;SDS011;6023;47.070;15.126;2023-02-28T01:56:03;4.77;;;3.47;;
11927;SDS011;6023;47.070;15.126;2023-02-28T01:58:33;3.70;;;3.30;;
11927;SDS011;6023;47.070;15.126;2023-02-28T02:01:02;4.90;;;3.37;;
11927;SDS011;6023;47.070;15.126;2023-02-28T02:03:32;4.00;;;3.30;;
11927;SDS011;6023;47.070;15.126;2023-02-28T02:06:02;5.03;;;3.50;;
11927;SDS011;6023;47.070;15.126;2023-02-28T02:08:31;5.33;;;3.40;;
11927;SDS011;6023;47.070;15.126;2023-02-28T02:11:00;3.73;;;3.10;;
11927;SDS011;6023;47.070;15.126;2023-02-28T02:16:38;3.97;;;3.30;;
11927;SDS011;6023;47.070;15.126;2023-02-28T02:19:26;4.40;;;3.43;;
11927;SDS011;6023;47.070;15.126;2023-02-28T02:22:29;4.73;;;3.40;;
11927;SDS011;6023;47.070;15.126;2023-02-28T02:25:25;4.03;;;3.37;;
11927;SDS011;6023;47.070;15.126;2023-02-28T02:27:59;5.03;;;3.57;;
11927;SDS011;6023;47.070;15.126;2023-02-28T02:36:49;3.90;;;3.30;;
11927;SDS011;6023;47.070;15.126;2023-02-28T02:39:19;4.40;;;3.50;;
11927;SDS011;6023;47.070;15.126;2023-02-28T02:41:56;3.60;;;3.23;;
11927;SDS011;6023;47.070;15.126;2023-02-28T02:44:34;5.00;;;3.60;;
11927;SDS011;6023;47.070;15.126;2023-02-28T02:47:09;5.03;;;3.70;;
11927;SDS011;6023;47.070;15.126;2023-02-28T02:49:40;3.87;;;3.30;;
11927;SDS011;6023;47.070;15.126;2023-02-28T02:52:13;4.27;;;3.13;;
11927;SDS011;6023;47.070;15.126;2023-02-28T02:54:44;4.40;;;3.50;;
11927;SDS011;6023;47.070;15.126;2023-02-28T02:57:15;4.20;;;3.40;;
11927;SDS011;6023;47.070;15.126;2023-02-28T02:59:46;4.13;;;3.30;;
11927;SDS011;6023;47.070;15.126;2023-02-28T03:02:16;4.07;;;3.67;;
11927;SDS011;6023;47.070;15.126;2023-02-28T03:04:46;4.40;;;3.80;;
11927;SDS011;6023;47.070;15.126;2023-02-28T03:07:20;4.53;;;3.70;;
11927;SDS011;6023;47.070;15.126;2023-02-28T03:09:51;4.10;;;3.70;;
11927;SDS011;6023;47.070;15.126;2023-02-28T03:12:20;4.70;;;3.87;;
11927;SDS011;6023;47.070;15.126;2023-02-28T03:14:53;4.70;;;3.80;;
11927;SDS011;6023;47.070;15.126;2023-02-28T03:17:28;6.87;;;4.07;;
11927;SDS011;6023;47.070;15.126;2023-02-28T03:20:07;15.00;;;12.33;;
11927;SDS011;6023;47.070;15.126;2023-02-28T03:22:47;21.17;;;17.00;;
11927;SDS011;6023;47.070;15.126;2023-02-28T03:25:27;8.47;;;6.43;;
11927;SDS011;6023;47.070;15.126;2023-02-28T03:28:00;5.13;;;4.20;;
11927;SDS011;6023;47.070;15.126;2023-02-28T03:30:35;4.27;;;3.80;;
11927;SDS011;6023;47.070;15.126;2023-02-28T03:33:08;4.50;;;3.57;;
11927;SDS011;6023;47.070;15.126;2023-02-28T03:35:41;3.77;;;3.37;;
11927;SDS011;6023;47.070;15.126;2023-02-28T03:38:14;5.07;;;4.10;;
11927;SDS011;6023;47.070;15.126;2023-02-28T03:40:46;3.83;;;3.27;;
11927;SDS011;6023;47.070;15.126;2023-02-28T03:43:18;4.33;;;3.93;;
11927;SDS011;6023;47.070;15.126;2023-02-28T03:45:49;3.97;;;3.57;;
11927;SDS011;6023;47.070;15.126;2023-02-28T03:48:19;4.10;;;3.70;;
11927;SDS011;6023;47.070;15.126;2023-02-28T03:50:51;4.93;;;4.20;;
11927;SDS011;6023;47.070;15.126;2023-02-28T03:53:25;4.33;;;3.60;;
11927;SDS011;6023;47.070;15.126;2023-02-28T03:55:56;4.57;;;3.60;;
11927;SDS011;6023;47.070;15.126;2023-02-28T03:58:28;4.63;;;3.70;;
11927;SDS011;6023;47.070;15.126;2023-02-28T04:00:59;4.83;;;4.00;;
11927;SDS011;6023;47.070;15.126;2023-02-28T04:03:35;4.63;;;3.40;;
11927;SDS011;6023;47.070;15.126;2023-02-28T04:06:04;4.10;;;3.70;;
11927;SDS011;6023;47.070;15.126;2023-02-28T04:08:35;4.10;;;3.70;;
11927;SDS011;6023;47.070;15.126;2023-02-28T04:11:05;4.87;;;3.70;;
11927;SDS011;6023;47.070;15.126;2023-02-28T04:13:40;4.00;;;3.60;;
11927;SDS011;6023;47.070;15.126;2023-02-28T04:16:12;4.87;;;4.00;;
11927;SDS011;6023;47.070;15.126;2023-02-28T04:18:59;4.10;;;3.67;;
11927;SDS011;6023;47.070;15.126;2023-02-28T04:21:30;4.90;;;3.70;;
11927;SDS011;6023;47.070;15.126;2023-02-28T04:24:01;4.50;;;3.60;;
11927;SDS011;6023;47.070;15.126;2023-02-28T04:26:30;3.93;;;3.50;;
11927;SDS011;6023;47.070;15.126;2023-02-28T04:29:00;4.07;;;3.60;;
11927;SDS011;6023;47.070;15.126;2023-02-28T04:31:29;4.47;;;3.50;;
11927;SDS011;6023;47.070;15.126;2023-02-28T04:33:58;4.00;;;3.60;;
11927;SDS011;6023;47.070;15.126;2023-02-28T04:36:26;4.03;;;3.43;;
11927;SDS011;6023;47.070;15.126;2023-02-28T04:38:55;4.57;;;3.80;;
11927;SDS011;6023;47.070;15.126;2023-02-28T04:41:26;3.80;;;3.40;;
11927;SDS011;6023;47.070;15.126;2023-02-28T04:43:58;4.33;;;3.30;;
11927;SDS011;6023;47.070;15.126;2023-02-28T04:46:27;3.83;;;3.43;;
11927;SDS011;6023;47.070;15.126;2023-02-28T04:48:57;4.13;;;3.70;;
11927;SDS011;6023;47.070;15.126;2023-02-28T04:51:25;3.87;;;3.50;;
11927;SDS011;6023;47.070;15.126;2023-02-28T04:53:54;4.53;;;3.40;;
11927;SDS011;6023;47.070;15.126;2023-02-28T04:56:23;4.13;;;3.23;;
11927;SDS011;6023;47.070;15.126;2023-02-28T04:58:53;4.90;;;3.70;;
11927;SDS011;6023;47.070;15.126;2023-02-28T05:01:22;3.87;;;3.40;;
11927;SDS011;6023;47.070;15.126;2023-02-28T05:03:52;4.40;;;3.80;;
11927;SDS011;6023;47.070;15.126;2023-02-28T05:06:22;4.57;;;3.93;;
11927;SDS011;6023;47.070;15.126;2023-02-28T05:08:52;4.20;;;3.80;;
11927;SDS011;6023;47.070;15.126;2023-02-28T05:11:24;4.00;;;3.60;;
11927;SDS011;6023;47.070;15.126;2023-02-28T05:13:57;4.57;;;3.57;;
11927;SDS011;6023;47.070;15.126;2023-02-28T05:16:26;4.07;;;3.67;;
11927;SDS011;6023;47.070;15.126;2023-02-28T05:18:54;3.77;;;3.37;;
11927;SDS011;6023;47.070;15.126;2023-02-28T05:21:25;3.87;;;3.40;;
11927;SDS011;6023;47.070;15.126;2023-02-28T05:23:56;4.07;;;3.60;;
11927;SDS011;6023;47.070;15.126;2023-02-28T05:26:26;4.30;;;3.90;;
11927;SDS011;6023;47.070;15.126;2023-02-28T05:28:55;4.90;;;3.60;;
11927;SDS011;6023;47.070;15.126;2023-02-28T05:31:25;3.93;;;3.40;;
11927;SDS011;6023;47.070;15.126;2023-02-28T05:33:54;4.53;;;3.63;;
11927;SDS011;6023;47.070;15.126;2023-02-28T05:36:23;4.67;;;3.80;;
11927;SDS011;6023;47.070;15.126;2023-02-28T05:38:51;4.13;;;3.33;;
11927;SDS011;6023;47.070;15.126;2023-02-28T05:41:20;4.10;;;3.70;;
11927;SDS011;6023;47.070;15.126;2023-02-28T05:43:49;5.57;;;4.07;;
11927;SDS011;6023;47.070;15.126;2023-02-28T05:46:17;19.97;;;17.67;;
11927;SDS011;6023;47.070;15.126;2023-02-28T05:48:48;29.70;;;25.93;;
11927;SDS011;6023;47.070;15.126;2023-02-28T05:51:16;24.83;;;22.23;;
11927;SDS011;6023;47.070;15.126;2023-02-28T05:53:45;23.07;;;20.67;;
11927;SDS011;6023;47.070;15.126;2023-02-28T05:56:14;19.70;;;17.47;;
11927;SDS011;6023;47.070;15.126;2023-02-28T05:58:43;19.23;;;16.03;;
11927;SDS011;6023;47.070;15.126;2023-02-28T06:01:30;12.70;;;10.80;;
11927;SDS011;6023;47.070;15.126;2023-02-28T06:04:02;9.37;;;7.60;;
11927;SDS011;6023;47.070;15.126;2023-02-28T06:06:31;7.90;;;7.10;;
11927;SDS011;6023;47.070;15.126;2023-02-28T06:09:03;7.27;;;5.83;;
11927;SDS011;6023;47.070;15.126;2023-02-28T06:11:32;10.23;;;7.60;;
11927;SDS011;6023;47.070;15.126;2023-02-28T06:14:01;30.63;;;21.53;;
11927;SDS011;6023;47.070;15.126;2023-02-28T06:16:30;33.70;;;24.97;;
11927;SDS011;6023;47.070;15.126;2023-02-28T06:19:01;20.65;;;18.42;;
11927;SDS011;6023;47.070;15.126;2023-02-28T06:21:31;16.30;;;13.00;;
11927;SDS011;6023;47.070;15.126;2023-02-28T06:24:00;11.93;;;10.20;;
11927;SDS011;6023;47.070;15.126;2023-02-28T06:26:29;11.27;;;8.17;;
11927;SDS011;6023;47.070;15.126;2023-02-28T06:28:58;9.17;;;6.50;;
11927;SDS011;6023;47.070;15.126;2023-02-28T06:31:27;8.63;;;6.80;;
11927;SDS011;6023;47.070;15.126;2023-02-28T06:33:56;7.93;;;6.03;;
11927;SDS011;6023;47.070;15.126;2023-02-28T06:36:26;10.03;;;9.03;;
11927;SDS011;6023;47.070;15.126;2023-02-28T06:38:55;10.37;;;7.57;;
11927;SDS011;6023;47.070;15.126;2023-02-28T06:41:24;11.90;;;9.33;;
11927;SDS011;6023;47.070;15.126;2023-02-28T06:43:54;27.07;;;20.87;;
11927;SDS011;6023;47.070;15.126;2023-02-28T06:46:23;16.57;;;12.67;;
11927;SDS011;6023;47.070;15.126;2023-02-28T06:48:52;13.67;;;8.10;;
11927;SDS011;6023;47.070;15.126;2023-02-28T06:51:21;8.37;;;6.60;;
11927;SDS011;6023;47.070;15.126;2023-02-28T06:53:52;8.97;;;7.10;;
11927;SDS011;6023;47.070;15.126;2023-02-28T06:56:21;14.53;;;10.90;;
11927;SDS011;6023;47.070;15.126;2023-02-28T06:58:49;13.43;;;10.27;;
11927;SDS011;6023;47.070;15.126;2023-02-28T07:01:19;14.47;;;11.50;;
11927;SDS011;6023;47.070;15.126;2023-02-28T07:03:50;15.63;;;11.57;;
11927;SDS011;6023;47.070;15.126;2023-02-28T07:06:20;13.20;;;10.60;;
11927;SDS011;6023;47.070;15.126;2023-02-28T07:08:50;12.30;;;9.23;;
11927;SDS011;6023;47.070;15.126;2023-02-28T07:11:21;11.57;;;8.67;;
11927;SDS011;6023;47.070;15.126;2023-02-28T07:13:52;15.93;;;12.13;;
11927;SDS011;6023;47.070;15.126;2023-02-28T07:16:21;14.73;;;11.17;;
11927;SDS011;6023;47.070;15.126;2023-02-28T07:18:52;15.33;;;11.47;;
11927;SDS011;6023;47.070;15.126;2023-02-28T07:21:21;13.40;;;9.80;;
11927;SDS011;6023;47.070;15.126;2023-02-28T07:23:49;10.87;;;7.80;;
11927;SDS011;6023;47.070;15.126;2023-02-28T07:26:20;9.20;;;7.57;;
11927;SDS011;6023;47.070;15.126;2023-02-28T07:28:48;10.27;;;7.10;;
11927;SDS011;6023;47.070;15.126;2023-02-28T07:31:17;9.23;;;7.27;;
11927;SDS011;6023;47.070;15.126;2023-02-28T07:33:46;9.73;;;6.73;;
11927;SDS011;6023;47.070;15.126;2023-02-28T07:36:15;8.87;;;6.93;;
11927;SDS011;6023;47.070;15.126;2023-02-28T07:38:46;32.83;;;17.90;;
11927;SDS011;6023;47.070;15.126;2023-02-28T07:41:17;20.83;;;11.73;;
11927;SDS011;6023;47.070;15.126;2023-02-28T07:43:49;14.90;;;8.97;;
11927;SDS011;6023;47.070;15.126;2023-02-28T07:46:17;18.67;;;12.00;;
11927;SDS011;6023;47.070;15.126;2023-02-28T07:48:47;14.13;;;9.40;;
11927;SDS011;6023;47.070;15.126;2023-02-28T07:51:16;13.73;;;9.37;;
11927;SDS011;6023;47.070;15.126;2023-02-28T07:53:45;29.33;;;16.70;;
11927;SDS011;6023;47.070;15.126;2023-02-28T07:56:14;38.27;;;22.77;;
11927;SDS011;6023;47.070;15.126;2023-02-28T07:58:43;40.17;;;24.77;;
11927;SDS011;6023;47.070;15.126;2023-02-28T08:01:12;25.57;;;16.20;;
11927;SDS011;6023;47.070;15.126;2023-02-28T08:03:41;17.90;;;13.40;;
11927;SDS011;6023;47.070;15.126;2023-02-28T08:06:15;10.17;;;7.87;;
11927;SDS011;6023;47.070;15.126;2023-02-28T08:08:44;8.77;;;7.40;;
11927;SDS011;6023;47.070;15.126;2023-02-28T08:11:13;13.33;;;10.03;;
11927;SDS011;6023;47.070;15.126;2023-02-28T08:13:44;14.03;;;9.73;;
11927;SDS011;6023;47.070;15.126;2023-02-28T08:16:13;26.70;;;18.40;;
11927;SDS011;6023;47.070;15.126;2023-02-28T08:18:48;17.03;;;11.90;;
11927;SDS011;6023;47.070;15.126;2023-02-28T08:21:17;28.60;;;21.20;;
11927;SDS011;6023;47.070;15.126;2023-02-28T08:23:46;27.27;;;21.57;;
11927;SDS011;6023;47.070;15.126;2023-02-28T08:26:16;19.53;;;14.97;;
11927;SDS011;6023;47.070;15.126;2023-02-28T08:28:46;17.07;;;13.30;;
11927;SDS011;6023;47.070;15.126;2023-02-28T08:31:15;10.87;;;8.33;;
11927;SDS011;6023;47.070;15.126;2023-02-28T08:33:44;10.20;;;7.90;;
11927;SDS011;6023;47.070;15.126;2023-02-28T08:36:15;10.50;;;8.60;;
11927;SDS011;6023;47.070;15.126;2023-02-28T08:38:44;12.90;;;9.40;;
11927;SDS011;6023;47.070;15.126;2023-02-28T08:41:12;12.03;;;8.27;;
11927;SDS011;6023;47.070;15.126;2023-02-28T08:43:41;9.83;;;7.97;;
11927;SDS011;6023;47.070;15.126;2023-02-28T08:46:12;14.87;;;10.90;;
11927;SDS011;6023;47.070;15.126;2023-02-28T08:48:41;11.13;;;8.30;;
11927;SDS011;6023;47.070;15.126;2023-02-28T08:51:11;9.77;;;7.97;;
11927;SDS011;6023;47.070;15.126;2023-02-28T08:53:42;16.63;;;14.07;;
11927;SDS011;6023;47.070;15.126;2023-02-28T08:56:12;20.70;;;16.80;;
11927;SDS011;6023;47.070;15.126;2023-02-28T08:58:41;13.93;;;11.27;;
11927;SDS011;6023;47.070;15.126;2023-02-28T09:01:12;11.27;;;8.60;;
11927;SDS011;6023;47.070;15.126;2023-02-28T09:03:42;9.10;;;7.80;;
11927;SDS011;6023;47.070;15.126;2023-02-28T09:06:13;15.80;;;10.77;;
11927;SDS011;6023;47.070;15.126;2023-02-28T09:08:42;21.67;;;13.80;;
11927;SDS011;6023;47.070;15.126;2023-02-28T09:11:11;20.73;;;14.67;;
11927;SDS011;6023;47.070;15.126;2023-02-28T09:13:40;15.33;;;12.23;;
11927;SDS011;6023;47.070;15.126;2023-02-28T09:16:10;10.63;;;8.30;;
11927;SDS011;6023;47.070;15.126;2023-02-28T09:18:43;9.83;;;8.07;;
11927;SDS011;6023;47.070;15.126;2023-02-28T09:21:13;10.23;;;8.20;;
11927;SDS011;6023;47.070;15.126;2023-02-28T09:23:43;9.47;;;7.67;;
11927;SDS011;6023;47.070;15.126;2023-02-28T09:26:13;11.43;;;7.90;;
11927;SDS011;6023;47.070;15.126;2023-02-28T09:28:42;11.17;;;8.13;;
11927;SDS011;6023;47.070;15.126;2023-02-28T09:31:13;9.77;;;8.07;;
11927;SDS011;6023;47.070;15.126;2023-02-28T09:33:42;11.43;;;8.40;;
11927;SDS011;6023;47.070;15.126;2023-02-28T09:36:11;10.80;;;8.70;;
11927;SDS011;6023;47.070;15.126;2023-02-28T09:38:39;11.43;;;10.00;;
11927;SDS011;6023;47.070;15.126;2023-02-28T09:41:11;10.80;;;8.23;;
11927;SDS011;6023;47.070;15.126;2023-02-28T09:43:43;10.63;;;8.40;;
11927;SDS011;6023;47.070;15.126;2023-02-28T09:46:27;8.87;;;7.70;;
11927;SDS011;6023;47.070;15.126;2023-02-28T09:48:59;10.87;;;8.07;;
11927;SDS011;6023;47.070;15.126;2023-02-28T09:51:44;10.00;;;7.63;;
11927;SDS011;6023;47.070;15.126;2023-02-28T09:54:17;9.83;;;7.67;;
11927;SDS011;6023;47.070;15.126;2023-02-28T09:56:49;11.90;;;7.63;;
11927;SDS011;6023;47.070;15.126;2023-02-28T09:59:43;10.07;;;7.80;;
11927;SDS011;6023;47.070;15.126;2023-02-28T10:02:30;9.67;;;7.43;;
11927;SDS011;6023;47.070;15.126;2023-02-28T10:05:18;9.67;;;7.63;;
11927;SDS011;6023;47.070;15.126;2023-02-28T10:07:54;10.10;;;7.60;;
11927;SDS011;6023;47.070;15.126;2023-02-28T10:10:29;9.80;;;8.03;;
11927;SDS011;6023;47.070;15.126;2023-02-28T10:13:02;9.57;;;7.93;;
11927;SDS011;6023;47.070;15.126;2023-02-28T10:15:34;10.40;;;7.73;;
11927;SDS011;6023;47.070;15.126;2023-02-28T10:18:06;11.30;;;8.10;;
11927;SDS011;6023;47.070;15.126;2023-02-28T10:20:39;11.83;;;8.27;;
11927;SDS011;6023;47.070;15.126;2023-02-28T10:23:10;12.77;;;8.50;;
11927;SDS011;6023;47.070;15.126;2023-02-28T10:25:43;10.57;;;7.60;;
11927;SDS011;6023;47.070;15.126;2023-02-28T10:28:15;9.97;;;8.10;;
11927;SDS011;6023;47.070;15.126;2023-02-28T10:30:46;10.30;;;7.63;;
11927;SDS011;6023;47.070;15.126;2023-02-28T10:33:22;8.97;;;7.60;;
11927;SDS011;6023;47.070;15.126;2023-02-28T10:35:52;10.07;;;7.97;;
11927;SDS011;6023;47.070;15.126;2023-02-28T10:38:21;9.97;;;7.60;;
11927;SDS011;6023;47.070;15.126;2023-02-28T10:40:51;9.70;;;7.87;;
11927;SDS011;6023;47.070;15.126;2023-02-28T10:43:22;16.27;;;12.33;;
11927;SDS011;6023;47.070;15.126;2023-02-28T10:45:53;11.17;;;9.37;;
11927;SDS011;6023;47.070;15.126;2023-02-28T10:48:29;11.50;;;9.37;;
11927;SDS011;6023;47.070;15.126;2023-02-28T10:51:02;10.93;;;8.93;;
11927;SDS011;6023;47.070;15.126;2023-02-28T10:53:33;11.93;;;8.77;;
11927;SDS011;6023;47.070;15.126;2023-02-28T10:56:25;10.63;;;8.40;;
11927;SDS011;6023;47.070;15.126;2023-02-28T10:58:55;9.60;;;7.93;;
11927;SDS011;6023;47.070;15.126;2023-02-28T11:01:24;12.77;;;9.40;;
11927;SDS011;6023;47.070;15.126;2023-02-28T11:04:03;10.43;;;8.57;;
11927;SDS011;6023;47.070;15.126;2023-02-28T11:06:45;24.27;;;13.70;;
11927;SDS011;6023;47.070;15.126;2023-02-28T11:09:17;12.63;;;9.23;;
11927;SDS011;6023;47.070;15.126;2023-02-28T11:11:48;10.90;;;8.50;;
11927;SDS011;6023;47.070;15.126;2023-02-28T11:14:19;9.60;;;8.33;;
11927;SDS011;6023;47.070;15.126;2023-02-28T11:16:48;10.23;;;8.63;;
11927;SDS011;6023;47.070;15.126;2023-02-28T11:19:20;10.00;;;8.70;;
11927;SDS011;6023;47.070;15.126;2023-02-28T11:21:53;11.50;;;8.73;;
11927;SDS011;6023;47.070;15.126;2023-02-28T11:24:24;11.37;;;8.67;;
11927;SDS011;6023;47.070;15.126;2023-02-28T11:26:55;10.07;;;8.33;;
11927;SDS011;6023;47.070;15.126;2023-02-28T11:29:24;10.77;;;8.07;;
11927;SDS011;6023;47.070;15.126;2023-02-28T11:32:04;10.47;;;8.13;;
11927;SDS011;6023;47.070;15.126;2023-02-28T11:34:39;11.77;;;8.73;;
11927;SDS011;6023;47.070;15.126;2023-02-28T11:37:13;13.47;;;8.60;;
11927;SDS011;6023;47.070;15.126;2023-02-28T11:39:42;9.43;;;8.43;;
11927;SDS011;6023;47.070;15.126;2023-02-28T11:42:24;10.10;;;8.20;;
11927;SDS011;6023;47.070;15.126;2023-02-28T11:45:03;13.00;;;10.70;;
11927;SDS011;6023;47.070;15.126;2023-02-28T11:47:43;12.73;;;9.77;;
11927;SDS011;6023;47.070;15.126;2023-02-28T11:50:22;11.00;;;9.20;;
11927;SDS011;6023;47.070;15.126;2023-02-28T11:53:00;11.67;;;8.70;;
11927;SDS011;6023;47.070;15.126;2023-02-28T11:55:30;13.07;;;9.07;;
11927;SDS011;6023;47.070;15.126;2023-02-28T12:01:09;10.20;;;8.40;;
11927;SDS011;6023;47.070;15.126;2023-02-28T12:03:44;11.30;;;8.30;;
11927;SDS011;6023;47.070;15.126;2023-02-28T12:06:20;11.67;;;8.67;;
11927;SDS011;6023;47.070;15.126;2023-02-28T12:08:58;10.47;;;8.60;;
11927;SDS011;6023;47.070;15.126;2023-02-28T12:11:35;11.13;;;9.23;;
11927;SDS011;6023;47.070;15.126;2023-02-28T12:14:17;12.33;;;9.43;;
11927;SDS011;6023;47.070;15.126;2023-02-28T12:16:59;12.80;;;9.57;;
11927;SDS011;6023;47.070;15.126;2023-02-28T12:19:35;13.53;;;9.43;;
11927;SDS011;6023;47.070;15.126;2023-02-28T12:25:02;10.67;;;8.70;;
11927;SDS011;6023;47.070;15.126;2023-02-28T12:27:55;12.50;;;9.57;;
11927;SDS011;6023;47.070;15.126;2023-02-28T12:30:24;11.67;;;8.80;;
11927;SDS011;6023;47.070;15.126;2023-02-28T12:32:55;11.70;;;8.90;;
11927;SDS011;6023;47.070;15.126;2023-02-28T12:35:26;10.90;;;8.87;;
11927;SDS011;6023;47.070;15.126;2023-02-28T12:38:04;18.03;;;14.47;;
11927;SDS011;6023;47.070;15.126;2023-02-28T12:40:39;14.07;;;10.10;;
11927;SDS011;6023;47.070;15.126;2023-02-28T12:43:12;11.10;;;9.30;;
11927;SDS011;6023;47.070;15.126;2023-02-28T12:45:43;11.67;;;9.23;;
11927;SDS011;6023;47.070;15.126;2023-02-28T12:48:21;12.50;;;10.10;;
11927;SDS011;6023;47.070;15.126;2023-02-28T12:50:54;11.47;;;9.13;;
11927;SDS011;6023;47.070;15.126;2023-02-28T12:53:25;13.23;;;9.03;;
11927;SDS011;6023;47.070;15.126;2023-02-28T12:56:00;11.87;;;8.87;;
11927;SDS011;6023;47.070;15.126;2023-02-28T12:58:36;11.13;;;9.17;;
11927;SDS011;6023;47.070;15.126;2023-02-28T13:04:08;11.23;;;8.97;;
11927;SDS011;6023;47.070;15.126;2023-02-28T13:07:10;11.50;;;9.00;;
11927;SDS011;6023;47.070;15.126;2023-02-28T13:10:02;12.07;;;9.03;;
11927;SDS011;6023;47.070;15.126;2023-02-28T13:12:33;12.63;;;9.53;;
11927;SDS011;6023;47.070;15.126;2023-02-28T13:15:04;13.10;;;9.77;;
11927;SDS011;6023;47.070;15.126;2023-02-28T13:17:38;10.80;;;8.90;;
11927;SDS011;6023;47.070;15.126;2023-02-28T13:20:14;12.07;;;9.43;;
11927;SDS011;6023;47.070;15.126;2023-02-28T13:22:44;11.67;;;8.93;;
11927;SDS011;6023;47.070;15.126;2023-02-28T13:28:56;13.63;;;10.00;;
11927;SDS011;6023;47.070;15.126;2023-02-28T13:34:41;12.43;;;8.60;;
11927;SDS011;6023;47.070;15.126;2023-02-28T13:43:06;13.93;;;9.83;;
11927;SDS011;6023;47.070;15.126;2023-02-28T13:45:37;12.13;;;9.70;;
11927;SDS011;6023;47.070;15.126;2023-02-28T13:48:16;11.90;;;9.33;;
11927;SDS011;6023;47.070;15.126;2023-02-28T13:50:46;12.03;;;9.40;;
11927;SDS011;6023;47.070;15.126;2023-02-28T13:53:24;10.97;;;9.30;;
11927;SDS011;6023;47.070;15.126;2023-02-28T13:56:07;13.63;;;10.20;;
11927;SDS011;6023;47.070;15.126;2023-02-28T13:58:49;14.60;;;12.43;;
11927;SDS011;6023;47.070;15.126;2023-02-28T14:01:26;12.17;;;10.03;;
11927;SDS011;6023;47.070;15.126;2023-02-28T14:04:11;16.03;;;10.10;;
11927;SDS011;6023;47.070;15.126;2023-02-28T14:07:00;17.80;;;12.77;;
11927;SDS011;6023;47.070;15.126;2023-02-28T14:09:30;15.57;;;12.80;;
11927;SDS011;6023;47.070;15.126;2023-02-28T14:15:01;20.03;;;15.37;;
11927;SDS011;6023;47.070;15.126;2023-02-28T14:17:31;18.70;;;14.63;;
11927;SDS011;6023;47.070;15.126;2023-02-28T14:20:00;13.90;;;11.37;;
11927;SDS011;6023;47.070;15.126;2023-02-28T14:22:42;12.83;;;9.97;;
11927;SDS011;6023;47.070;15.126;2023-02-28T14:25:22;13.57;;;10.17;;
11927;SDS011;6023;47.070;15.126;2023-02-28T14:27:56;12.47;;;9.87;;
11927;SDS011;6023;47.070;15.126;2023-02-28T14:30:40;12.17;;;9.73;;
11927;SDS011;6023;47.070;15.126;2023-02-28T14:33:25;11.97;;;9.83;;
11927;SDS011;6023;47.070;15.126;2023-02-28T14:36:00;13.73;;;10.37;;
11927;SDS011;6023;47.070;15.126;2023-02-28T14:38:33;12.37;;;10.40;;
11927;SDS011;6023;47.070;15.126;2023-02-28T14:41:11;15.43;;;12.17;;
11927;SDS011;6023;47.070;15.126;2023-02-28T14:43:47;12.40;;;9.53;;
11927;SDS011;6023;47.070;15.126;2023-02-28T14:46:18;14.40;;;10.63;;
11927;SDS011;6023;47.070;15.126;2023-02-28T14:48:49;14.40;;;12.23;;
11927;SDS011;6023;47.070;15.126;2023-02-28T14:51:18;15.07;;;11.47;;
11927;SDS011;6023;47.070;15.126;2023-02-28T14:53:49;11.97;;;9.77;;
11927;SDS011;6023;47.070;15.126;2023-02-28T14:56:24;11.50;;;9.07;;
11927;SDS011;6023;47.070;15.126;2023-02-28T14:58:56;13.27;;;11.00;;
11927;SDS011;6023;47.070;15.126;2023-02-28T15:01:25;13.57;;;9.83;;
11927;SDS011;6023;47.070;15.126;2023-02-28T15:03:59;17.43;;;13.97;;
11927;SDS011;6023;47.070;15.126;2023-02-28T15:06:29;17.63;;;13.80;;
11927;SDS011;6023;47.070;15.126;2023-02-28T15:09:08;15.70;;;10.97;;
11927;SDS011;6023;47.070;15.126;2023-02-28T15:11:39;12.07;;;9.50;;
11927;SDS011;6023;47.070;15.126;2023-02-28T15:14:13;12.63;;;9.63;;
11927;SDS011;6023;47.070;15.126;2023-02-28T15:16:44;13.47;;;9.60;;
11927;SDS011;6023;47.070;15.126;2023-02-28T15:19:16;13.07;;;9.60;;
11927;SDS011;6023;47.070;15.126;2023-02-28T15:21:48;11.90;;;9.33;;
11927;SDS011;6023;47.070;15.126;2023-02-28T15:24:19;11.73;;;9.20;;
11927;SDS011;6023;47.070;15.126;2023-02-28T15:26:53;12.17;;;9.37;;
11927;SDS011;6023;47.070;15.126;2023-02-28T15:29:24;12.47;;;9.07;;
11927;SDS011;6023;47.070;15.126;2023-02-28T15:31:55;13.47;;;8.80;;
11927;SDS011;6023;47.070;15.126;2023-02-28T15:34:29;11.40;;;8.87;;
11927;SDS011;6023;47.070;15.126;2023-02-28T15:37:30;14.00;;;9.70;;
11927;SDS011;6023;47.070;15.126;2023-02-28T15:40:10;12.60;;;9.77;;
11927;SDS011;6023;47.070;15.126;2023-02-28T15:42:42;12.40;;;8.83;;